createdAt,value
2023-05-24T00:01:09.075Z,63.87
2023-05-24T00:04:39.098Z,64.48
2023-05-24T00:07:18.057Z,63.21
2023-05-24T00:10:09.091Z,64.68
2023-05-24T00:12:36.046Z,64.28
2023-05-24T00:15:03.423Z,64.52
2023-05-24T00:17:32.583Z,64.55
2023-05-24T00:20:05.745Z,64.90
2023-05-24T00:22:34.160Z,64.68
2023-05-24T00:25:01.107Z,65.17
2023-05-24T00:27:28.099Z,65.17
2023-05-24T00:30:03.438Z,65.20
2023-05-24T00:32:34.181Z,65.31
2023-05-24T00:35:07.836Z,65.67
2023-05-24T00:37:35.090Z,65.90
2023-05-24T00:40:02.470Z,65.93
2023-05-24T00:42:29.738Z,65.34
2023-05-24T00:44:56.750Z,65.37
2023-05-24T00:47:24.233Z,65.64
2023-05-24T00:49:54.024Z,65.37
2023-05-24T00:52:21.694Z,65.75
2023-05-24T00:54:49.868Z,66.07
2023-05-24T00:57:17.195Z,66.04
2023-05-24T00:59:44.869Z,65.39
2023-05-24T01:02:11.953Z,65.65
2023-05-24T01:04:44.933Z,65.40
2023-05-24T01:07:25.630Z,65.52
2023-05-24T01:10:08.073Z,65.33
2023-05-24T01:12:52.167Z,64.72
2023-05-24T01:15:27.814Z,65.71
2023-05-24T01:18:07.393Z,65.44
2023-05-24T01:20:37.606Z,65.14
2023-05-24T01:23:28.942Z,65.15
2023-05-24T01:26:17.419Z,65.80
2023-05-24T01:29:11.344Z,64.91
2023-05-24T01:31:38.888Z,65.51
2023-05-24T01:34:06.998Z,65.14
2023-05-24T01:36:34.061Z,65.56
2023-05-24T01:39:01.298Z,65.76
2023-05-24T01:41:41.549Z,64.80
2023-05-24T01:44:24.894Z,64.78
2023-05-24T01:47:03.336Z,64.99
2023-05-24T01:49:42.296Z,64.05
2023-05-24T01:52:16.983Z,64.45
2023-05-24T01:54:52.618Z,64.95
2023-05-24T01:57:21.652Z,64.99
2023-05-24T01:59:50.897Z,64.73
2023-05-24T02:03:46.155Z,64.25
2023-05-24T02:06:13.647Z,64.67
2023-05-24T02:08:40.759Z,64.73
2023-05-24T02:11:07.796Z,65.33
2023-05-24T02:13:34.804Z,65.27
2023-05-24T02:16:04.593Z,65.45
2023-05-24T02:18:31.626Z,65.17
2023-05-24T02:20:58.602Z,65.54
2023-05-24T02:23:25.550Z,65.70
2023-05-24T02:25:53.712Z,65.39
2023-05-24T02:28:20.907Z,65.74
2023-05-24T02:30:48.450Z,65.72
2023-05-24T02:33:17.063Z,65.64
2023-05-24T02:35:44.192Z,65.40
2023-05-24T02:38:10.962Z,64.87
2023-05-24T02:40:37.903Z,65.19
2023-05-24T02:43:05.472Z,64.90
2023-05-24T02:45:32.635Z,65.29
2023-05-24T02:48:00.035Z,64.84
2023-05-24T02:50:29.696Z,64.35
2023-05-24T02:52:56.768Z,64.79
2023-05-24T02:55:24.017Z,64.61
2023-05-24T02:57:51.098Z,65.46
2023-05-24T03:00:19.633Z,65.79
2023-05-24T03:02:48.422Z,64.73
2023-05-24T03:05:15.962Z,65.03
2023-05-24T03:11:41.097Z,64.75
2023-05-24T03:14:08.792Z,65.18
2023-05-24T03:16:36.411Z,65.13
2023-05-24T03:19:07.044Z,64.92
2023-05-24T03:21:35.440Z,65.22
2023-05-24T03:24:04.844Z,65.45
2023-05-24T03:26:32.451Z,65.51
2023-05-24T03:28:59.440Z,65.46
2023-05-24T03:31:33.139Z,65.73
2023-05-24T03:34:02.348Z,66.08
2023-05-24T03:36:31.833Z,65.79
2023-05-24T03:38:58.863Z,65.65
2023-05-24T03:41:27.762Z,65.92
2023-05-24T03:43:58.694Z,66.05
2023-05-24T03:46:27.616Z,65.50
2023-05-24T03:48:55.759Z,65.91
2023-05-24T03:51:23.362Z,65.34
2023-05-24T03:53:50.312Z,65.44
2023-05-24T03:56:17.355Z,66.18
2023-05-24T03:58:45.607Z,65.90
2023-05-24T04:01:21.930Z,65.92
2023-05-24T04:03:53.342Z,65.49
2023-05-24T04:06:20.501Z,65.37
2023-05-24T04:08:47.576Z,65.18
2023-05-24T04:11:14.503Z,64.73
2023-05-24T04:13:41.513Z,63.69
2023-05-24T04:16:10.411Z,64.48
2023-05-24T04:18:37.396Z,63.65
2023-05-24T04:21:04.694Z,63.94
2023-05-24T04:23:32.810Z,64.40
2023-05-24T04:25:59.715Z,63.55
2023-05-24T04:28:26.846Z,63.93
2023-05-24T04:30:54.597Z,63.01
2023-05-24T04:33:23.083Z,62.88
2023-05-24T04:35:50.118Z,63.31
2023-05-24T04:38:17.684Z,62.65
2023-05-24T04:40:45.762Z,62.28
2023-05-24T04:43:12.811Z,61.98
2023-05-24T04:45:40.292Z,62.54
2023-05-24T04:48:09.519Z,61.52
2023-05-24T04:50:38.112Z,62.04
2023-05-24T04:53:05.333Z,61.41
2023-05-24T04:55:32.706Z,61.52
2023-05-24T04:58:00.832Z,61.04
2023-05-24T05:00:27.806Z,62.32
2023-05-24T05:02:55.046Z,61.52
2023-05-24T05:05:21.975Z,61.63
2023-05-24T05:07:50.860Z,62.12
2023-05-24T05:10:17.885Z,61.61
2023-05-24T05:12:44.863Z,61.54
2023-05-24T05:15:12.080Z,61.72
2023-05-24T05:17:39.050Z,63.06
2023-05-24T05:20:07.865Z,62.58
2023-05-24T05:22:36.577Z,62.45
2023-05-24T05:25:06.064Z,62.15
2023-05-24T05:27:33.829Z,62.29
2023-05-24T05:30:01.659Z,61.72
2023-05-24T05:32:28.683Z,61.11
2023-05-24T05:34:56.859Z,61.13
2023-05-24T05:37:23.747Z,61.79
2023-05-24T05:39:50.644Z,60.41
2023-05-24T05:42:18.873Z,61.10
2023-05-24T05:44:46.668Z,61.95
2023-05-24T05:47:13.586Z,61.75
2023-05-24T05:49:40.655Z,60.26
2023-05-24T05:52:07.686Z,60.56
2023-05-24T05:54:34.711Z,61.15
2023-05-24T05:57:01.881Z,61.46
2023-05-24T05:59:31.062Z,60.18
2023-05-24T06:01:58.662Z,60.20
2023-05-24T06:04:25.545Z,60.88
2023-05-24T06:06:52.930Z,59.97
2023-05-24T06:09:20.051Z,59.90
2023-05-24T06:11:46.880Z,58.79
2023-05-24T06:14:14.283Z,59.91
2023-05-24T06:16:42.607Z,59.30
2023-05-24T06:19:09.770Z,58.22
2023-05-24T06:21:36.474Z,57.95
2023-05-24T06:24:04.204Z,58.54
2023-05-24T06:26:31.074Z,59.88
2023-05-24T06:28:57.928Z,58.72
2023-05-24T06:31:25.075Z,59.41
2023-05-24T06:34:03.844Z,59.31
2023-05-24T06:36:31.963Z,58.30
2023-05-24T06:38:58.897Z,59.57
2023-05-24T06:41:25.760Z,58.80
2023-05-24T06:43:52.810Z,60.02
2023-05-24T06:46:20.245Z,60.21
2023-05-24T06:48:47.364Z,59.69
2023-05-24T06:51:17.178Z,61.12
2023-05-24T06:53:44.212Z,59.65
2023-05-24T06:56:11.187Z,58.93
2023-05-24T06:58:38.329Z,58.84
2023-05-24T07:01:05.584Z,58.42
2023-05-24T07:03:32.580Z,58.28
2023-05-24T07:05:59.723Z,58.26
2023-05-24T07:08:28.647Z,57.18
2023-05-24T07:10:55.950Z,57.55
2023-05-24T07:13:23.156Z,58.62
2023-05-24T07:15:50.063Z,58.73
2023-05-24T07:18:17.060Z,59.77
2023-05-24T07:20:44.575Z,59.43
2023-05-24T07:23:11.753Z,59.38
2023-05-24T07:25:41.045Z,57.67
2023-05-24T07:28:10.839Z,58.38
2023-05-24T07:30:37.856Z,58.04
2023-05-24T07:33:04.873Z,57.71
2023-05-24T07:35:31.823Z,58.08
2023-05-24T07:37:58.727Z,59.52
2023-05-24T07:40:27.075Z,58.88
2023-05-24T07:42:57.209Z,59.08
2023-05-24T07:45:24.398Z,59.06
2023-05-24T07:47:53.317Z,57.57
2023-05-24T07:50:22.182Z,57.92
2023-05-24T07:52:49.837Z,56.91
2023-05-24T07:55:16.860Z,57.71
2023-05-24T07:57:43.850Z,56.77
2023-05-24T08:00:14.157Z,57.15
2023-05-24T08:02:42.473Z,56.93
2023-05-24T08:05:11.746Z,56.62
2023-05-24T08:07:39.047Z,57.45
2023-05-24T08:10:07.936Z,57.63
2023-05-24T08:12:35.047Z,57.00
2023-05-24T08:15:02.267Z,56.82
2023-05-24T08:17:30.829Z,57.84
2023-05-24T08:19:57.985Z,58.23
2023-05-24T08:22:25.579Z,57.57
2023-05-24T08:24:52.565Z,57.30
2023-05-24T08:27:19.521Z,56.92
2023-05-24T08:29:46.674Z,57.67
2023-05-24T08:32:13.760Z,58.41
2023-05-24T08:34:42.675Z,58.78
2023-05-24T08:37:13.633Z,59.52
2023-05-24T08:39:41.827Z,60.00
2023-05-24T08:42:10.622Z,59.25
2023-05-24T08:44:45.428Z,58.22
2023-05-24T08:47:14.220Z,59.17
2023-05-24T08:49:44.917Z,59.55
2023-05-24T08:52:12.884Z,59.00
2023-05-24T08:54:41.217Z,58.67
2023-05-24T08:57:09.731Z,57.46
2023-05-24T08:59:37.316Z,57.35
2023-05-24T09:02:05.377Z,57.85
2023-05-24T09:04:35.377Z,58.60
2023-05-24T09:07:05.743Z,59.94
2023-05-24T09:09:35.388Z,59.87
2023-05-24T09:12:06.377Z,59.07
2023-05-24T09:14:34.168Z,60.58
2023-05-24T09:17:03.678Z,61.04
2023-05-24T09:19:30.808Z,60.48
2023-05-24T09:21:59.312Z,59.89
2023-05-24T09:24:28.081Z,59.46
2023-05-24T09:26:55.205Z,59.87
2023-05-24T09:29:23.060Z,59.02
2023-05-24T09:31:56.108Z,59.38
2023-05-24T09:38:21.296Z,58.64
2023-05-24T09:41:06.995Z,58.55
2023-05-24T09:43:48.401Z,59.21
2023-05-24T09:46:17.646Z,58.50
2023-05-24T09:48:56.761Z,60.41
2023-05-24T09:51:26.277Z,59.77
2023-05-24T09:53:57.314Z,57.96
2023-05-24T09:56:52.409Z,58.49
2023-05-24T09:59:20.673Z,58.53
2023-05-24T10:01:47.930Z,57.96
2023-05-24T10:04:15.490Z,57.54
2023-05-24T10:06:44.164Z,57.65
2023-05-24T10:09:11.604Z,56.27
2023-05-24T10:11:39.517Z,55.61
2023-05-24T10:14:59.388Z,55.25
2023-05-24T10:17:26.476Z,53.63
2023-05-24T10:19:53.518Z,52.91
2023-05-24T10:22:22.230Z,52.66
2023-05-24T10:25:42.533Z,51.76
2023-05-24T10:28:13.704Z,49.92
2023-05-24T10:30:51.422Z,50.21
2023-05-24T10:33:23.053Z,50.16
2023-05-24T10:35:51.946Z,50.99
2023-05-24T10:38:22.870Z,50.43
2023-05-24T10:40:50.563Z,48.64
2023-05-24T10:43:18.221Z,47.06
2023-05-24T10:45:50.599Z,47.59
2023-05-24T10:48:41.381Z,43.75
2023-05-24T10:51:35.294Z,44.92
2023-05-24T10:54:19.888Z,40.56
2023-05-24T10:56:49.532Z,41.07
2023-05-24T10:59:31.309Z,39.02
2023-05-24T11:02:00.790Z,39.38
2023-05-24T11:04:33.072Z,38.91
2023-05-24T11:07:06.948Z,37.42
2023-05-24T11:09:34.019Z,38.47
2023-05-24T11:12:04.420Z,38.60
2023-05-24T11:14:31.891Z,39.75
2023-05-24T11:17:01.465Z,39.46
2023-05-24T11:19:35.052Z,46.03
2023-05-24T11:22:07.513Z,47.11
2023-05-24T11:24:35.061Z,43.44
2023-05-24T11:27:05.286Z,42.30
2023-05-24T11:29:41.729Z,39.58
2023-05-24T11:32:15.598Z,41.21
2023-05-24T11:34:47.970Z,45.39
2023-05-24T11:37:17.616Z,42.71
2023-05-24T11:39:50.735Z,41.98
2023-05-24T11:42:18.395Z,38.43
2023-05-24T11:44:51.624Z,37.92
2023-05-24T11:48:16.714Z,36.57
2023-05-24T11:50:49.760Z,37.85
2023-05-24T11:53:20.382Z,36.72
2023-05-24T11:55:50.302Z,36.70
2023-05-24T11:58:24.256Z,38.26
2023-05-24T12:05:08.947Z,42.04
2023-05-24T12:07:35.891Z,41.18
2023-05-24T12:10:07.261Z,39.60
2023-05-24T12:16:42.818Z,46.08
2023-05-24T12:19:31.863Z,46.14
2023-05-24T12:22:04.045Z,45.67
2023-05-24T12:24:33.209Z,44.59
2023-05-24T12:27:03.480Z,41.93
2023-05-24T12:29:35.929Z,41.41
2023-05-24T12:32:03.911Z,40.51
2023-05-24T12:34:33.313Z,41.39
2023-05-24T12:37:05.609Z,40.22
2023-05-24T12:39:36.575Z,40.00
2023-05-24T12:42:05.395Z,40.74
2023-05-24T12:44:36.731Z,38.42
2023-05-24T12:47:07.735Z,39.37
2023-05-24T12:49:35.301Z,39.76
2023-05-24T12:52:04.100Z,39.71
2023-05-24T12:54:32.633Z,40.74
2023-05-24T12:57:00.224Z,41.08
2023-05-24T12:59:28.849Z,38.75
2023-05-24T13:01:57.630Z,40.04
2023-05-24T13:04:25.273Z,42.24
2023-05-24T13:06:52.573Z,41.77
2023-05-24T13:09:21.198Z,41.03
2023-05-24T13:11:48.369Z,41.43
2023-05-24T13:14:17.391Z,40.39
2023-05-24T13:16:52.117Z,39.74
2023-05-24T13:19:20.378Z,40.06
2023-05-24T13:22:14.750Z,41.46
2023-05-24T13:25:10.435Z,38.80
2023-05-24T13:27:37.472Z,39.00
2023-05-24T13:30:06.017Z,40.82
2023-05-24T13:32:33.440Z,41.35
2023-05-24T13:35:00.708Z,42.06
2023-05-24T13:37:27.782Z,42.71
2023-05-24T13:39:54.700Z,42.18
2023-05-24T13:42:23.077Z,41.27
2023-05-24T13:44:50.035Z,41.62
2023-05-24T13:47:27.284Z,41.33
2023-05-24T13:50:02.744Z,41.72
2023-05-24T13:52:29.630Z,43.75
2023-05-24T13:54:57.918Z,43.54
2023-05-24T13:57:31.345Z,42.53
2023-05-24T14:00:08.850Z,41.69
2023-05-24T14:02:35.781Z,41.38
2023-05-24T14:05:24.284Z,39.70
2023-05-24T14:07:50.001Z,41.07
2023-05-24T14:10:19.289Z,39.61
2023-05-24T14:13:03.417Z,39.82
2023-05-24T14:15:36.554Z,39.15
2023-05-24T14:18:03.653Z,38.81
2023-05-24T14:20:30.678Z,39.56
2023-05-24T14:22:58.641Z,37.75
2023-05-24T14:26:19.991Z,38.80
2023-05-24T14:28:48.655Z,38.97
2023-05-24T14:31:15.684Z,39.14
2023-05-24T14:33:42.561Z,37.87
2023-05-24T14:36:12.475Z,39.41
2023-05-24T14:38:39.546Z,40.57
2023-05-24T14:41:06.768Z,41.34
2023-05-24T14:43:33.872Z,41.43
2023-05-24T14:46:02.547Z,41.57
2023-05-24T14:48:29.711Z,41.16
2023-05-24T14:51:12.730Z,40.44
2023-05-24T14:53:51.319Z,40.67
2023-05-24T14:56:18.769Z,40.82
2023-05-24T14:58:46.040Z,39.83
2023-05-24T15:01:14.758Z,39.96
2023-05-24T15:03:42.896Z,39.63
2023-05-24T15:06:10.122Z,40.11
2023-05-24T15:09:02.754Z,39.95
2023-05-24T15:11:30.287Z,40.35
2023-05-24T15:13:57.890Z,41.97
2023-05-24T15:16:27.109Z,41.72
2023-05-24T15:19:19.104Z,43.09
2023-05-24T15:21:50.669Z,43.61
2023-05-24T15:24:17.735Z,43.37
2023-05-24T15:26:44.833Z,43.52
2023-05-24T15:29:12.090Z,41.67
2023-05-24T15:31:40.974Z,43.36
2023-05-24T15:34:08.537Z,43.47
2023-05-24T15:36:36.825Z,43.86
2023-05-24T15:39:07.412Z,43.08
2023-05-24T15:41:35.531Z,43.24
2023-05-24T15:44:06.166Z,43.43
2023-05-24T15:47:02.610Z,44.15
2023-05-24T15:53:22.380Z,43.50
2023-05-24T15:55:49.619Z,42.74
2023-05-24T15:58:16.763Z,42.71
2023-05-24T16:00:44.109Z,43.39
2023-05-24T16:03:45.466Z,44.13
2023-05-24T16:06:13.558Z,41.84
2023-05-24T16:08:43.805Z,42.92
2023-05-24T16:11:13.627Z,42.21
2023-05-24T16:14:05.860Z,41.61
2023-05-24T16:17:15.149Z,40.81
2023-05-24T16:19:44.057Z,40.98
2023-05-24T16:22:17.259Z,41.10
2023-05-24T16:24:57.929Z,40.65
2023-05-24T16:27:25.113Z,40.41
2023-05-24T16:30:16.874Z,40.21
2023-05-24T16:33:23.175Z,37.55
2023-05-24T16:35:52.276Z,37.01
2023-05-24T16:38:28.937Z,38.17
2023-05-24T16:40:59.036Z,36.51
2023-05-24T16:43:26.227Z,35.89
2023-05-24T16:46:10.253Z,36.40
2023-05-24T16:48:37.549Z,38.17
2023-05-24T16:51:12.833Z,38.66
2023-05-24T16:53:39.972Z,39.12
2023-05-24T16:56:07.838Z,39.45
2023-05-24T16:58:35.059Z,39.84
2023-05-24T17:01:02.033Z,40.67
2023-05-24T17:03:56.710Z,40.99
2023-05-24T17:06:25.223Z,41.74
2023-05-24T17:08:52.278Z,41.24
2023-05-24T17:11:19.741Z,41.28
2023-05-24T17:13:47.278Z,41.54
2023-05-24T17:16:14.979Z,40.77
2023-05-24T17:18:44.468Z,41.02
2023-05-24T17:21:11.794Z,41.36
2023-05-24T17:23:40.183Z,40.33
2023-05-24T17:26:07.501Z,40.30
2023-05-24T17:28:36.068Z,39.58
2023-05-24T17:32:18.927Z,39.67
2023-05-24T17:34:48.370Z,39.12
2023-05-24T17:37:18.694Z,39.18
2023-05-24T17:39:47.227Z,38.59
2023-05-24T17:42:14.279Z,38.19
2023-05-24T17:44:41.293Z,37.76
2023-05-24T17:47:08.183Z,37.68
2023-05-24T17:49:35.196Z,38.10
2023-05-24T17:52:02.466Z,36.64
2023-05-24T17:54:29.417Z,37.53
2023-05-24T17:56:57.664Z,36.21
2023-05-24T17:59:24.759Z,36.62
2023-05-24T18:01:52.205Z,37.19
2023-05-24T18:04:23.275Z,36.60
2023-05-24T18:06:50.546Z,37.21
2023-05-24T18:09:17.490Z,36.45
2023-05-24T18:11:44.472Z,35.83
2023-05-24T18:14:12.773Z,36.28
2023-05-24T18:16:48.058Z,36.40
2023-05-24T18:19:16.248Z,36.35
2023-05-24T18:26:07.091Z,37.21
2023-05-24T18:28:46.620Z,37.73
2023-05-24T18:31:29.464Z,38.59
2023-05-24T18:38:27.631Z,40.04
2023-05-24T18:41:21.328Z,41.45
2023-05-24T18:43:49.861Z,41.64
2023-05-24T18:46:20.837Z,41.78
2023-05-24T18:48:47.936Z,43.34
2023-05-24T18:51:15.150Z,43.59
2023-05-24T18:53:42.091Z,44.41
2023-05-24T18:56:09.063Z,43.52
2023-05-24T18:58:36.992Z,43.32
2023-05-24T19:01:04.551Z,43.88
2023-05-24T19:03:33.698Z,44.19
2023-05-24T19:06:00.824Z,44.16
2023-05-24T19:08:27.850Z,44.96
2023-05-24T19:10:54.803Z,46.16
2023-05-24T19:13:21.958Z,46.91
2023-05-24T19:15:48.980Z,48.25
2023-05-24T19:18:16.229Z,48.41
2023-05-24T19:20:47.972Z,48.66
2023-05-24T19:23:15.151Z,48.70
2023-05-24T19:25:43.434Z,48.82
2023-05-24T19:28:12.496Z,48.88
2023-05-24T19:30:39.542Z,49.32
2023-05-24T19:33:06.913Z,49.38
2023-05-24T19:35:34.215Z,49.73
2023-05-24T19:38:02.753Z,49.75
2023-05-24T19:40:29.636Z,49.76
2023-05-24T19:42:56.860Z,49.38
2023-05-24T19:45:26.228Z,50.09
2023-05-24T19:47:53.268Z,50.11
2023-05-24T19:50:20.815Z,49.86
2023-05-24T19:52:47.893Z,49.72
2023-05-24T19:55:16.573Z,49.90
2023-05-24T19:57:44.160Z,50.47
2023-05-24T20:00:12.644Z,51.17
2023-05-24T20:02:40.249Z,50.76
2023-05-24T20:05:08.492Z,51.49
2023-05-24T20:07:36.890Z,51.53
2023-05-24T20:10:05.284Z,51.18
2023-05-24T20:12:33.859Z,52.10
2023-05-24T20:15:00.758Z,51.70
2023-05-24T20:17:27.791Z,52.47
2023-05-24T20:19:54.746Z,51.98
2023-05-24T20:22:21.744Z,52.54
2023-05-24T20:24:50.020Z,52.64
2023-05-24T20:27:17.134Z,52.25
2023-05-24T20:31:00.150Z,53.16
2023-05-24T20:33:28.432Z,53.06
2023-05-24T20:35:56.011Z,53.31
2023-05-24T20:38:23.374Z,53.91
2023-05-24T20:40:50.399Z,54.23
2023-05-24T20:43:17.492Z,54.27
2023-05-24T20:45:44.839Z,54.37
2023-05-24T20:48:12.255Z,54.48
2023-05-24T20:50:40.850Z,54.50
2023-05-24T20:53:07.845Z,54.97
2023-05-24T20:55:35.613Z,54.99
2023-05-24T20:58:02.712Z,55.35
2023-05-24T21:00:29.769Z,55.58
2023-05-24T21:02:57.030Z,55.91
2023-05-24T21:05:24.061Z,55.56
2023-05-24T21:07:52.510Z,56.00
2023-05-24T21:10:20.724Z,56.30
2023-05-24T21:12:49.040Z,56.68
2023-05-24T21:15:17.092Z,57.37
2023-05-24T21:17:44.165Z,57.56
2023-05-24T21:20:11.859Z,57.66
2023-05-24T21:22:42.454Z,57.97
2023-05-24T21:25:11.211Z,58.58
2023-05-24T21:27:38.124Z,58.61
2023-05-24T21:30:06.781Z,58.26
2023-05-24T21:32:34.166Z,58.18
2023-05-24T21:35:01.052Z,58.28
2023-05-24T21:37:29.715Z,58.16
2023-05-24T21:39:56.784Z,57.94
2023-05-24T21:42:25.536Z,58.04
2023-05-24T21:44:53.790Z,57.91
2023-05-24T21:47:22.546Z,58.21
2023-05-24T21:49:53.175Z,58.58
2023-05-24T21:52:20.578Z,58.29
2023-05-24T21:54:47.759Z,59.28
2023-05-24T21:57:15.398Z,59.06
2023-05-24T21:59:43.813Z,59.13
2023-05-24T22:02:11.495Z,58.95
2023-05-24T22:04:39.161Z,59.25
2023-05-24T22:07:06.381Z,58.67
2023-05-24T22:09:33.302Z,59.02
2023-05-24T22:12:00.270Z,59.91
2023-05-24T22:14:27.355Z,58.83
2023-05-24T22:16:56.295Z,58.63
2023-05-24T22:19:38.326Z,58.60
2023-05-24T22:22:06.373Z,57.82
2023-05-24T22:24:33.422Z,57.57
2023-05-24T22:27:01.599Z,57.21
2023-05-24T22:29:31.815Z,56.28
2023-05-24T22:32:00.419Z,56.28
2023-05-24T22:34:28.566Z,55.60
2023-05-24T22:36:56.482Z,55.86
2023-05-24T22:39:23.800Z,55.94
2023-05-24T22:41:52.184Z,56.03
2023-05-24T22:44:19.437Z,54.84
2023-05-24T22:46:48.018Z,56.49
2023-05-24T22:49:17.084Z,55.15
2023-05-24T22:51:44.252Z,55.21
2023-05-24T22:54:11.733Z,54.92
2023-05-24T22:56:39.105Z,55.89
2023-05-24T22:59:07.178Z,55.34
2023-05-24T23:01:34.709Z,55.69
2023-05-24T23:04:18.901Z,55.92
2023-05-24T23:06:50.035Z,56.80
2023-05-24T23:09:17.105Z,55.91
2023-05-24T23:11:43.985Z,57.75
2023-05-24T23:14:11.485Z,55.77
2023-05-24T23:16:39.529Z,56.29
2023-05-24T23:19:06.687Z,57.61
2023-05-24T23:21:33.673Z,57.17
2023-05-24T23:24:02.000Z,56.68
2023-05-24T23:26:29.078Z,56.52
2023-05-24T23:28:56.856Z,56.64
2023-05-24T23:31:23.925Z,56.89
2023-05-24T23:33:51.061Z,56.77
2023-05-24T23:36:18.246Z,57.16
2023-05-24T23:38:45.389Z,56.97
2023-05-24T23:41:13.897Z,56.49
2023-05-24T23:43:40.839Z,57.10
2023-05-24T23:46:08.135Z,56.99
2023-05-24T23:48:35.198Z,56.82
2023-05-24T23:51:02.168Z,56.98
2023-05-24T23:53:29.354Z,56.92
2023-05-24T23:55:56.288Z,57.33
2023-05-24T23:58:24.576Z,58.04
